Time;durP1;ratioP1;P1;durP2;ratioP2;P2;SDS_P1;SDS_P2;PMS_P1;PMS_P2;Temp;Humidity;BMP_temperature;BMP_pressure;BME280_temperature;BME280_humidity;BME280_pressure;Samples;Min_cycle;Max_cycle;Signal;HPM_P1;HPM_P2
2022/04/28 00:01:02;;;;;;;8.77;5.47;;;;;;;10.36;56.17;99824.88;5105097;28;20244;-69
2022/04/28 00:03:32;;;;;;;8.40;6.10;;;;;;;10.28;56.06;99820.78;5105753;28;20046;-69
2022/04/28 00:06:02;;;;;;;6.03;5.13;;;;;;;9.68;55.99;99723.84;5105466;28;20036;-69
2022/04/28 00:08:34;;;;;;;8.07;5.38;;;;;;;10.27;56.03;100094.59;5105614;28;20284;-68
2022/04/28 00:11:03;;;;;;;9.18;5.95;;;;;;;10.21;55.95;99819.34;5105715;28;20051;-69
2022/04/28 00:13:33;;;;;;;10.07;6.05;;;;;;;10.18;56.13;99819.50;5105770;28;20107;-70
2022/04/28 00:16:04;;;;;;;7.80;5.32;;;;;;;10.13;55.98;99820.63;5105686;28;20039;-69
2022/04/28 00:18:33;;;;;;;10.55;5.53;;;;;;;10.14;55.66;99811.75;5105434;28;20040;-69
2022/04/28 00:21:04;;;;;;;8.93;6.10;;;;;;;10.12;56.06;99819.78;5104532;28;20043;-69
2022/04/28 00:23:35;;;;;;;6.05;5.15;;;;;;;10.08;55.82;99818.19;5105537;28;20046;-69
2022/04/28 00:26:04;;;;;;;9.82;6.28;;;;;;;10.07;55.85;99815.63;5105342;28;20304;-69
2022/04/28 00:28:35;;;;;;;7.00;5.20;;;;;;;10.04;55.66;99818.41;5104528;28;20036;-70
2022/04/28 00:31:05;;;;;;;7.28;5.43;;;;;;;10.04;55.56;99821.91;5105142;28;20089;-69
2022/04/28 00:33:35;;;;;;;7.43;4.72;;;;;;;10.03;55.87;99822.84;5105205;28;20296;-70
2022/04/28 00:36:06;;;;;;;7.28;5.13;;;;;;;10.05;55.71;99820.97;5104875;28;20055;-70
2022/04/28 00:38:37;;;;;;;6.05;4.90;;;;;;;10.00;55.20;99819.47;5104581;28;20063;-69
2022/04/28 00:41:06;;;;;;;6.32;4.60;;;;;;;9.95;55.92;99831.13;5105288;28;20312;-69
2022/04/28 00:43:48;;;;;;;8.40;5.68;;;;;;;9.92;54.46;99825.97;5105958;28;20043;-69
2022/04/28 00:46:21;;;;;;;6.55;5.43;;;;;;;9.12;55.93;99699.88;5109190;28;20085;-69
2022/04/28 00:51:43;;;;;;;7.50;6.25;;;;;;;9.90;55.89;99825.19;5109322;28;20091;-70
2022/04/28 00:54:16;;;;;;;7.38;5.63;;;;;;;9.89;55.57;99833.19;5109075;28;20040;-70
2022/04/28 00:56:48;;;;;;;7.75;5.65;;;;;;;9.87;55.61;99827.09;5109053;28;20040;-69
2022/04/28 00:59:21;;;;;;;11.07;5.93;;;;;;;9.81;55.71;99828.25;5108966;28;20098;-70
2022/04/28 01:01:53;;;;;;;7.30;5.45;;;;;;;9.48;55.72;99772.38;5109239;28;20085;-69
2022/04/28 01:04:25;;;;;;;9.25;5.97;;;;;;;9.52;55.82;99786.31;5108376;28;20049;-70
2022/04/28 01:06:57;;;;;;;8.48;5.72;;;;;;;9.77;55.57;99825.81;5108906;28;20040;-70
2022/04/28 01:09:36;;;;;;;6.82;5.40;;;;;;;9.78;55.39;99836.31;5108819;28;20085;-70
2022/04/28 01:12:12;;;;;;;8.30;4.65;;;;;;;9.72;55.35;99828.66;5108160;28;20044;-70
2022/04/28 01:14:45;;;;;;;7.60;5.65;;;;;;;9.66;55.41;99826.28;5108692;28;20238;-70
2022/04/28 01:17:18;;;;;;;8.52;5.72;;;;;;;9.65;55.61;99826.34;5108970;28;20322;-70
2022/04/28 01:19:50;;;;;;;7.18;5.32;;;;;;;7.73;55.48;99498.91;5108570;28;20288;-70
2022/04/28 01:22:26;;;;;;;6.82;5.03;;;;;;;9.27;54.99;99775.91;5107997;28;20047;-70
2022/04/28 01:25:07;;;;;;;6.72;5.43;;;;;;;9.58;55.25;99823.09;5108442;28;20048;-70
2022/04/28 01:27:39;;;;;;;6.03;4.80;;;;;;;9.57;55.78;99826.69;5108461;28;20203;-69
2022/04/28 01:30:14;;;;;;;7.05;5.25;;;;;;;9.51;55.64;99822.50;5107639;28;20346;-69
2022/04/28 01:32:46;;;;;;;8.70;5.32;;;;;;;9.53;56.03;99828.59;5108694;28;20040;-69
2022/04/28 01:35:19;;;;;;;7.80;4.95;;;;;;;9.52;56.03;99826.03;5108300;28;20035;-69
2022/04/28 01:37:52;;;;;;;8.68;5.53;;;;;;;9.54;55.90;99826.81;5108135;28;20055;-69
2022/04/28 01:40:25;;;;;;;6.78;4.75;;;;;;;9.56;55.86;99825.81;5107661;28;20052;-70
2022/04/28 01:42:57;;;;;;;7.50;4.43;;;;;;;9.57;55.80;99824.03;5108191;28;20040;-70
2022/04/28 01:45:30;;;;;;;7.80;5.97;;;;;;;8.61;55.66;99690.59;5108437;28;20040;-70
2022/04/28 01:48:02;;;;;;;7.93;6.22;;;;;;;9.54;55.90;99826.81;5108376;28;20040;-70
2022/04/28 01:50:34;;;;;;;6.43;5.50;;;;;;;9.22;55.81;99778.75;5108008;28;20044;-69
2022/04/28 01:55:57;;;;;;;6.43;5.05;;;;;;;9.10;55.86;99804.84;5106732;28;20044;-70
2022/04/28 01:58:29;;;;;;;7.70;6.50;;;;;;;9.44;55.84;99833.44;5107773;28;20246;-69
2022/04/28 02:01:01;;;;;;;7.85;5.00;;;;;;;8.79;56.08;99721.53;5107274;28;20047;-70
2022/04/28 02:03:33;;;;;;;8.65;5.05;;;;;;;9.18;55.74;99800.09;5108064;28;20040;-70
2022/04/28 02:06:05;;;;;;;6.13;4.93;;;;;;;9.35;55.91;99831.13;5107979;28;20043;-70
2022/04/28 02:08:40;;;;;;;8.20;5.38;;;;;;;9.38;55.79;99828.38;5107915;28;20338;-70
2022/04/28 02:11:09;;;;;;;7.65;5.82;;;;;;;9.38;56.00;99831.88;5107440;28;20059;-69
2022/04/28 02:13:38;;;;;;;7.75;5.53;;;;;;;9.34;56.14;99822.34;5108014;28;20101;-70
2022/04/28 02:16:09;;;;;;;7.13;5.53;;;;;;;9.37;56.02;99822.22;5106728;28;20103;-70
2022/04/28 02:18:39;;;;;;;8.23;6.05;;;;;;;8.49;55.95;99713.09;5106933;28;20086;-70
2022/04/28 02:21:09;;;;;;;6.28;4.90;;;;;;;9.37;55.96;99829.28;5107353;28;20044;-69
2022/04/28 02:23:40;;;;;;;6.82;5.20;;;;;;;9.35;55.86;99832.00;5107548;28;20040;-70
2022/04/28 02:26:09;;;;;;;8.43;5.80;;;;;;;9.30;56.15;99828.69;5106483;28;20184;-70
2022/04/28 02:28:40;;;;;;;6.15;4.80;;;;;;;9.28;56.07;99827.91;5107530;28;20043;-70
2022/04/28 02:31:10;;;;;;;7.82;5.70;;;;;;;9.26;56.06;99829.75;5107481;28;20051;-69
2022/04/28 02:33:40;;;;;;;7.25;5.68;;;;;;;9.24;56.13;99835.09;5107084;28;20292;-69
2022/04/28 02:36:12;;;;;;;7.45;5.55;;;;;;;8.96;56.32;99782.47;5106075;28;20040;-70
2022/04/28 02:38:42;;;;;;;6.05;4.88;;;;;;;9.25;56.25;99830.66;5106469;28;20062;-69
2022/04/28 02:41:11;;;;;;;8.27;5.78;;;;;;;8.68;56.26;99740.47;5106277;28;20047;-68
2022/04/28 02:43:41;;;;;;;6.22;5.22;;;;;;;9.20;56.37;99825.56;5106086;28;20202;-69
2022/04/28 02:46:12;;;;;;;7.25;5.28;;;;;;;9.19;56.31;99828.25;5106356;28;20039;-69
2022/04/28 02:48:42;;;;;;;7.30;6.05;;;;;;;8.86;56.37;99838.44;5106968;28;20107;-69
2022/04/28 02:51:12;;;;;;;7.95;5.75;;;;;;;9.15;56.33;99822.22;5106817;28;20040;-68
2022/04/28 02:53:43;;;;;;;8.30;5.40;;;;;;;9.13;56.47;99829.38;5105989;28;20073;-68
2022/04/28 02:56:12;;;;;;;7.45;6.13;;;;;;;9.12;56.63;99837.38;5106907;28;20043;-69
2022/04/28 02:58:43;;;;;;;7.30;5.13;;;;;;;9.09;56.63;99830.41;5105822;28;20296;-69
2022/04/28 03:01:13;;;;;;;7.88;6.18;;;;;;;9.09;56.66;99830.41;5105701;28;20040;-68
2022/04/28 03:03:43;;;;;;;7.30;5.68;;;;;;;9.08;56.64;99833.97;5106724;28;20040;-69
2022/04/28 03:11:56;;;;;;;8.00;5.57;;;;;;;7.81;56.74;99674.47;5106805;28;20089;-68
2022/04/28 03:14:29;;;;;;;9.13;6.50;;;;;;;8.92;56.64;99828.47;5106527;28;20043;-69
2022/04/28 03:17:01;;;;;;;6.80;5.75;;;;;;;8.92;56.84;99833.75;5106549;28;20280;-68
2022/04/28 03:19:33;;;;;;;6.13;4.72;;;;;;;8.89;56.77;99838.31;5122461;28;20093;-68
2022/04/28 03:22:05;;;;;;;6.57;5.43;;;;;;;7.04;56.86;99525.34;5106171;28;20092;-68
2022/04/28 03:24:40;;;;;;;8.25;5.30;;;;;;;8.55;56.93;99802.66;5106197;28;20040;-69
2022/04/28 03:27:12;;;;;;;7.60;6.30;;;;;;;8.80;57.26;99842.19;5089552;28;20040;-68
2022/04/28 03:29:44;;;;;;;6.78;4.88;;;;;;;8.79;57.36;99845.75;5106301;28;20043;-69
2022/04/28 03:32:16;;;;;;;8.52;6.30;;;;;;;8.86;57.06;99841.06;5105377;28;20047;-68
2022/04/28 03:34:48;;;;;;;6.25;5.00;;;;;;;8.87;57.04;99854.22;5105895;28;20040;-68
2022/04/28 03:37:20;;;;;;;13.98;6.03;;;;;;;8.86;57.20;99849.00;5105627;28;20180;-69
2022/04/28 03:39:54;;;;;;;8.63;5.70;;;;;;;8.84;57.02;99842.91;5105932;28;20040;-68
2022/04/28 03:42:27;;;;;;;8.83;5.80;;;;;;;8.23;57.45;99758.19;5105891;28;20215;-68
2022/04/28 03:45:00;;;;;;;9.68;6.72;;;;;;;8.16;57.38;99749.63;5105278;28;20440;-68
2022/04/28 03:47:32;;;;;;;5.80;5.00;;;;;;;8.41;57.50;99796.22;5104945;28;20040;-69
2022/04/28 03:50:06;;;;;;;7.57;5.95;;;;;;;8.74;57.56;99852.13;5106012;28;20052;-68
2022/04/28 03:52:38;;;;;;;8.52;6.25;;;;;;;8.68;57.83;99856.75;5105586;28;20048;-68
2022/04/28 03:55:12;;;;;;;7.13;5.70;;;;;;;8.70;57.86;99858.47;5105645;28;20085;-68
2022/04/28 03:57:44;;;;;;;8.53;6.60;;;;;;;8.67;57.99;99857.66;5105844;28;20047;-68
2022/04/28 04:00:18;;;;;;;8.88;5.88;;;;;;;6.50;57.69;99549.28;5105927;28;20085;-69
2022/04/28 04:02:50;;;;;;;8.02;6.43;;;;;;;7.16;58.15;99788.47;5105921;28;20051;-68
2022/04/28 04:05:22;;;;;;;6.82;5.32;;;;;;;8.58;58.32;99855.38;5105713;28;20208;-69
2022/04/28 04:07:54;;;;;;;6.63;5.03;;;;;;;8.59;58.31;99854.47;5105690;28;20296;-69
2022/04/28 04:10:28;;;;;;;8.50;5.55;;;;;;;8.59;58.31;99851.81;5105954;28;20035;-69
2022/04/28 04:13:00;;;;;;;7.50;6.13;;;;;;;8.59;58.31;99856.25;5104770;28;20215;-69
2022/04/28 04:15:33;;;;;;;8.65;5.78;;;;;;;8.60;58.45;99856.19;5105866;28;20145;-69
2022/04/28 04:18:05;;;;;;;8.27;5.57;;;;;;;8.65;58.20;99862.16;5105568;28;20039;-69
2022/04/28 04:20:37;;;;;;;14.45;6.50;;;;;;;8.66;58.18;99866.50;5109798;28;20292;-69
2022/04/28 04:23:10;;;;;;;8.60;6.45;;;;;;;8.40;58.28;99816.47;5110239;28;20047;-69
2022/04/28 04:25:43;;;;;;;8.75;6.15;;;;;;;8.70;58.25;99863.75;5110110;28;20047;-69
2022/04/28 04:28:17;;;;;;;8.10;5.85;;;;;;;8.48;58.24;99821.47;5110156;28;20153;-69
2022/04/28 04:33:38;;;;;;;6.97;5.45;;;;;;;8.80;58.21;99868.59;5109520;28;20103;-69
2022/04/28 04:36:11;;;;;;;8.27;5.45;;;;;;;7.93;58.00;99723.28;5108889;28;20044;-69
2022/04/28 04:38:43;;;;;;;7.30;5.50;;;;;;;8.90;57.89;99877.91;5109664;28;20040;-69
2022/04/28 04:41:17;;;;;;;7.28;5.63;;;;;;;8.93;57.81;99877.78;5109677;28;20086;-69
2022/04/28 04:43:46;;;;;;;7.97;6.35;;;;;;;8.96;57.93;99877.66;5109387;28;20067;-69
2022/04/28 04:46:16;;;;;;;5.90;4.90;;;;;;;8.99;57.94;99880.16;5108549;28;20089;-69
2022/04/28 04:48:46;;;;;;;7.57;5.32;;;;;;;8.45;57.65;99790.75;5109189;28;20039;-69
2022/04/28 04:51:16;;;;;;;6.45;5.47;;;;;;;9.04;57.67;99881.75;5109691;28;20077;-69
2022/04/28 04:53:46;;;;;;;9.07;5.70;;;;;;;8.14;57.57;99737.41;5109106;28;20044;-69
2022/04/28 04:56:18;;;;;;;7.88;6.20;;;;;;;8.79;57.60;99848.38;5109390;28;20035;-69
2022/04/28 04:58:46;;;;;;;7.90;6.53;;;;;;;9.11;57.66;99885.88;5109306;28;20044;-69
2022/04/28 05:01:16;;;;;;;8.38;6.78;;;;;;;9.13;57.66;99902.53;5091763;28;20059;-69
2022/04/28 05:03:46;;;;;;;7.65;6.45;;;;;;;9.14;57.57;99897.19;5109146;28;20040;-70
2022/04/28 05:06:17;;;;;;;6.55;5.22;;;;;;;9.21;57.33;99897.84;5109184;28;20050;-69
2022/04/28 05:08:47;;;;;;;6.78;5.63;;;;;;;9.22;57.27;99897.78;5109136;28;20032;-69
2022/04/28 05:11:18;;;;;;;8.18;5.85;;;;;;;8.63;57.37;99783.88;5108727;28;20315;-69
2022/04/28 05:13:47;;;;;;;7.28;6.13;;;;;;;9.33;57.20;99899.97;5108787;28;20201;-69
2022/04/28 05:16:17;;;;;;;7.75;6.43;;;;;;;9.37;57.12;99906.88;5109144;28;20028;-69
2022/04/28 05:18:48;;;;;;;10.73;7.18;;;;;;;9.40;57.17;99912.06;5107980;28;20093;-69
2022/04/28 05:21:17;;;;;;;9.10;5.97;;;;;;;9.46;56.97;99914.44;5108021;28;20292;-69
2022/04/28 05:23:47;;;;;;;7.88;6.82;;;;;;;9.52;56.90;99913.34;5108576;28;20247;-69
2022/04/28 05:26:19;;;;;;;9.77;5.80;;;;;;;9.53;57.10;99915.91;5108730;28;20044;-69
2022/04/28 05:28:48;;;;;;;9.88;6.20;;;;;;;9.31;56.86;99863.00;5108443;28;20036;-68
2022/04/28 05:31:18;;;;;;;7.45;6.60;;;;;;;9.62;56.83;99915.53;5107850;28;20040;-69
2022/04/28 05:33:48;;;;;;;10.95;7.28;;;;;;;9.68;56.76;99918.84;5108202;28;20104;-69
2022/04/28 05:36:20;;;;;;;7.72;6.45;;;;;;;9.72;56.71;99921.28;5108198;28;20060;-70
2022/04/28 05:38:49;;;;;;;8.55;6.38;;;;;;;8.94;56.35;99786.09;5108256;28;20036;-69
2022/04/28 05:41:20;;;;;;;7.57;5.43;;;;;;;9.86;56.00;99918.06;5107498;28;20051;-69
2022/04/28 05:46:40;;;;;;;6.90;5.65;;;;;;;10.01;55.63;99917.38;5108053;28;20035;-69
2022/04/28 05:49:12;;;;;;;6.63;5.05;;;;;;;10.09;55.85;99925.00;5107921;28;20040;-68
2022/04/28 05:51:45;;;;;;;5.88;4.60;;;;;;;8.68;55.82;99681.47;5107209;28;20051;-69
2022/04/28 05:54:17;;;;;;;7.38;6.13;;;;;;;10.21;55.45;99927.09;5107750;28;20051;-69
2022/04/28 05:56:51;;;;;;;7.93;5.22;;;;;;;10.28;55.41;99920.59;5107817;28;20047;-69
2022/04/28 05:59:23;;;;;;;10.40;6.13;;;;;;;10.34;55.41;99924.75;5108157;28;20141;-69
2022/04/28 06:01:56;;;;;;;7.15;5.00;;;;;;;10.43;54.92;99924.34;5108005;28;20040;-69
2022/04/28 06:04:29;;;;;;;8.60;6.05;;;;;;;10.53;54.61;99928.28;5107108;28;20043;-69
2022/04/28 06:07:01;;;;;;;8.63;6.28;;;;;;;10.64;54.51;99923.34;5107736;28;20040;-68
2022/04/28 06:09:33;;;;;;;8.02;5.53;;;;;;;10.78;54.40;99931.56;5107677;28;20300;-69
2022/04/28 06:12:08;;;;;;;7.00;5.25;;;;;;;11.00;53.55;99917.28;5107005;28;20258;-69
2022/04/28 06:14:41;;;;;;;;;;;;;;;11.11;52.62;99925.59;5108100;28;20040;-69
2022/04/28 06:17:13;;;;;;;8.50;5.10;;;;;;;11.67;52.37;99924.56;5107596;28;19920;-69
2022/04/28 06:19:45;;;;;;;7.50;4.47;;;;;;;11.54;52.81;99922.53;5107692;28;20346;-69
2022/04/28 06:22:17;;;;;;;8.88;5.93;;;;;;;12.76;49.51;99925.91;5106659;28;20144;-68
2022/04/28 06:24:51;;;;;;;8.13;6.07;;;;;;;12.57;48.67;99790.47;5107558;28;20334;-69
2022/04/28 06:27:28;;;;;;;7.30;5.50;;;;;;;17.88;40.16;99900.22;5106783;28;20048;-70
2022/04/28 06:30:00;;;;;;;8.40;5.72;;;;;;;18.64;37.91;99853.13;5107327;28;20065;-69
2022/04/28 06:32:32;;;;;;;6.45;5.05;;;;;;;17.12;39.53;99759.47;5107356;28;20227;-69
2022/04/28 06:35:05;;;;;;;7.07;4.90;;;;;;;16.45;42.48;99913.44;5107583;28;20040;-69
2022/04/28 06:37:39;;;;;;;7.82;6.30;;;;;;;15.01;45.42;99919.59;5106280;28;20091;-69
2022/04/28 06:40:12;;;;;;;7.80;5.78;;;;;;;12.84;47.77;99726.84;5107462;28;20052;-69
2022/04/28 06:42:49;;;;;;;9.48;6.32;;;;;;;13.36;47.84;99894.13;5105855;28;20036;-69
2022/04/28 06:45:22;;;;;;;7.03;5.65;;;;;;;13.68;49.17;99933.06;5106365;28;20107;-69
2022/04/28 06:47:55;;;;;;;7.88;5.35;;;;;;;13.26;49.14;99892.94;5107360;28;20058;-69
2022/04/28 06:50:27;;;;;;;7.68;5.32;;;;;;;13.89;49.12;99935.41;5106982;28;20062;-69
2022/04/28 06:52:59;;;;;;;7.53;5.18;;;;;;;14.39;48.13;99930.53;5107025;28;20085;-69
2022/04/28 06:55:31;;;;;;;6.43;5.05;;;;;;;14.70;48.17;99924.22;5106841;28;20085;-70
2022/04/28 06:58:05;;;;;;;7.72;5.95;;;;;;;14.90;47.32;99924.75;5106812;28;20044;-70
2022/04/28 07:00:37;;;;;;;7.40;5.72;;;;;;;15.08;47.95;99924.44;5106804;28;20040;-69
2022/04/28 07:03:10;;;;;;;7.13;5.60;;;;;;;14.91;47.88;99892.63;5106946;28;20107;-69
2022/04/28 07:05:42;;;;;;;8.15;6.20;;;;;;;13.39;47.19;99619.75;5106600;28;20040;-69
2022/04/28 07:08:15;;;;;;;7.85;6.53;;;;;;;14.31;47.06;99767.53;5105956;28;20056;-69
2022/04/28 07:10:47;;;;;;;7.78;5.10;;;;;;;15.38;47.23;99932.25;5106566;28;20338;-70
2022/04/28 07:13:20;;;;;;;6.65;5.05;;;;;;;15.14;46.64;99892.97;5106672;28;20093;-69
2022/04/28 07:15:53;;;;;;;7.22;5.90;;;;;;;15.27;47.78;99933.91;5106478;28;20089;-69
2022/04/28 07:18:25;;;;;;;7.53;5.70;;;;;;;15.21;47.51;99927.16;5106565;28;20330;-69
2022/04/28 07:20:58;;;;;;;13.60;6.93;;;;;;;15.31;47.59;99933.63;5106309;28;20040;-68
2022/04/28 07:23:31;;;;;;;6.97;5.65;;;;;;;15.43;47.47;99929.28;5106584;28;20044;-68
2022/04/28 07:26:03;;;;;;;6.53;5.72;;;;;;;15.62;46.95;99931.59;5105406;28;20040;-68
2022/04/28 07:28:37;;;;;;;7.43;5.25;;;;;;;14.84;45.74;99779.25;5105665;28;20048;-69
2022/04/28 07:31:09;;;;;;;7.07;5.30;;;;;;;15.91;44.80;99932.34;5106399;28;20085;-68
2022/04/28 07:33:41;;;;;;;6.63;5.65;;;;;;;15.98;45.18;99937.16;5105926;28;20040;-68
2022/04/28 07:36:13;;;;;;;7.05;5.55;;;;;;;16.00;44.64;99929.88;5106071;28;20044;-69
2022/04/28 07:38:46;;;;;;;9.18;5.70;;;;;;;16.06;44.89;99925.94;5105947;28;20043;-68
2022/04/28 07:41:18;;;;;;;12.10;6.07;;;;;;;16.20;44.53;99928.50;5105848;28;20048;-69
2022/04/28 07:43:49;;;;;;;8.68;5.75;;;;;;;16.09;43.86;99895.47;5106590;28;20044;-68
2022/04/28 07:46:18;;;;;;;7.88;5.32;;;;;;;16.45;44.07;99935.69;5105341;28;20043;-68
2022/04/28 07:48:48;;;;;;;7.93;5.63;;;;;;;16.28;44.16;99907.44;5105868;28;20044;-68
2022/04/28 07:51:19;;;;;;;7.88;6.47;;;;;;;16.74;43.49;99928.31;5106048;28;20149;-68
2022/04/28 07:53:49;;;;;;;7.60;5.47;;;;;;;16.80;42.65;99941.25;5103862;28;20032;-69
2022/04/28 07:56:20;;;;;;;9.65;6.07;;;;;;;16.71;43.37;99893.72;5105959;28;20039;-69
2022/04/28 07:58:50;;;;;;;11.95;5.82;;;;;;;17.09;41.74;99938.28;5105790;28;20040;-68
2022/04/28 08:01:19;;;;;;;9.05;6.00;;;;;;;17.15;42.57;99933.34;5105694;28;20043;-68
2022/04/28 08:03:50;;;;;;;7.45;6.25;;;;;;;16.97;41.72;99899.88;5105044;28;20043;-68
2022/04/28 08:06:19;;;;;;;7.60;6.18;;;;;;;16.83;42.25;99858.03;5088278;28;20040;-68
2022/04/28 08:08:50;;;;;;;7.70;5.95;;;;;;;17.44;41.99;99936.56;5104861;28;20036;-68
2022/04/28 08:11:20;;;;;;;7.07;5.82;;;;;;;17.51;41.73;99936.97;5105899;28;20105;-69
2022/04/28 08:13:51;;;;;;;9.75;6.18;;;;;;;17.56;41.70;99943.69;5105967;28;20306;-69
2022/04/28 08:16:20;;;;;;;9.75;6.55;;;;;;;16.08;41.89;99690.56;5105618;28;20059;-69
2022/04/28 08:18:50;;;;;;;12.10;6.90;;;;;;;17.41;41.75;99896.63;5105922;28;20036;-68
2022/04/28 08:21:21;;;;;;;10.55;6.05;;;;;;;17.73;41.87;99944.28;5104711;28;20156;-68
2022/04/28 08:23:50;;;;;;;9.73;7.13;;;;;;;17.86;41.46;99953.13;5105579;28;20044;-68
2022/04/28 08:26:20;;;;;;;8.52;7.30;;;;;;;17.90;41.52;99949.22;5106041;28;20200;-68
2022/04/28 08:28:52;;;;;;;8.80;7.43;;;;;;;17.98;41.43;99948.66;5105737;28;20090;-69
2022/04/28 08:31:21;;;;;;;8.32;6.93;;;;;;;17.30;41.54;99822.41;5106022;28;20047;-69
2022/04/28 08:33:51;;;;;;;12.35;6.88;;;;;;;18.19;41.25;99945.19;5104692;28;20059;-69
2022/04/28 08:36:21;;;;;;;8.80;6.57;;;;;;;18.18;41.18;99946.16;5104553;28;20080;-69
2022/04/28 08:38:52;;;;;;;7.95;5.97;;;;;;;18.27;41.79;99950.78;5121476;28;20130;-68
2022/04/28 08:41:30;;;;;;;11.32;8.57;;;;;;;18.42;39.50;99948.75;5105159;28;20040;-68
2022/04/28 08:44:05;;;;;;;7.53;6.53;;;;;;;18.51;40.69;99948.03;5104274;28;20040;-69
2022/04/28 08:46:53;;;;;;;8.43;6.97;;;;;;;18.60;41.46;99949.16;5105030;28;20044;-69
2022/04/28 08:49:28;;;;;;;8.30;6.72;;;;;;;18.77;39.76;99948.69;5105725;28;20036;-69
2022/04/28 08:52:02;;;;;;;8.00;6.22;;;;;;;18.51;40.71;99902.41;5105501;28;20040;-69
2022/04/28 08:54:36;;;;;;;;;;;;;;;18.88;38.25;99935.25;5105009;28;20048;-68
2022/04/28 08:57:08;;;;;;;8.85;6.45;;;;;;;19.01;40.79;99934.25;5105072;28;19916;-69
2022/04/28 08:59:43;;;;;;;8.52;7.10;;;;;;;18.68;39.58;99882.28;5105390;28;20284;-69
2022/04/28 09:02:22;;;;;;;10.20;6.35;;;;;;;17.54;39.93;99653.53;5105419;28;20040;-69
2022/04/28 09:04:59;;;;;;;14.25;6.60;;;;;;;19.36;38.20;99940.28;5106359;28;20065;-69
2022/04/28 09:07:34;;;;;;;8.45;5.63;;;;;;;19.44;37.68;99934.31;5108829;28;20111;-69
2022/04/28 09:10:26;;;;;;;10.57;6.65;;;;;;;19.38;35.97;99937.47;5109118;28;20280;-70
2022/04/28 09:14:09;;;;;;;7.80;6.18;;;;;;;19.35;37.92;99927.84;5108033;28;20043;-69
2022/04/28 09:15:56;;;;;;;6.45;5.00;;;;;;;19.40;38.42;99931.03;5108698;28;20264;-69
2022/04/28 09:18:28;;;;;;;7.50;6.00;;;;;;;19.31;38.72;99886.06;5107809;28;20044;-68
2022/04/28 09:21:01;;;;;;;6.13;5.00;;;;;;;19.66;37.92;99930.69;5108956;28;20093;-68
2022/04/28 09:23:33;;;;;;;8.10;5.32;;;;;;;19.79;37.94;99932.22;5108497;28;20040;-69
2022/04/28 09:26:07;;;;;;;8.77;5.88;;;;;;;19.93;36.79;99931.09;5108519;28;20051;-69
2022/04/28 09:28:40;;;;;;;8.90;5.78;;;;;;;19.97;37.65;99926.31;5108473;28;20036;-68
2022/04/28 09:31:14;;;;;;;7.60;5.07;;;;;;;15.96;35.62;99236.06;5107830;28;20040;-68
2022/04/28 09:33:47;;;;;;;7.25;6.10;;;;;;;20.16;35.06;99924.59;5108511;28;20040;-68
2022/04/28 09:36:19;;;;;;;7.57;5.25;;;;;;;20.22;36.22;99927.75;5108098;28;20064;-69
2022/04/28 09:38:53;;;;;;;8.35;5.40;;;;;;;20.29;34.30;99920.88;5108429;28;20040;-69
2022/04/28 09:44:16;;;;;;;7.72;5.45;;;;;;;20.08;35.11;99926.25;5108157;28;20085;-70
2022/04/28 09:46:51;;;;;;;10.05;7.97;;;;;;;20.05;34.64;99931.88;5108391;28;20044;-70
2022/04/28 09:49:24;;;;;;;8.60;6.55;;;;;;;19.87;35.67;99888.56;5108306;28;20230;-69
2022/04/28 09:51:59;;;;;;;7.25;6.32;;;;;;;20.11;36.02;99931.38;5108021;28;20040;-69
2022/04/28 09:54:36;;;;;;;7.15;5.35;;;;;;;19.91;34.85;99892.72;5107971;28;20044;-70
2022/04/28 09:57:09;;;;;;;6.65;4.65;;;;;;;19.97;33.88;99924.47;5107745;28;20119;-70
2022/04/28 09:59:42;;;;;;;7.28;4.88;;;;;;;19.96;34.12;99925.44;5107813;28;20066;-70
2022/04/28 10:02:18;;;;;;;7.20;4.75;;;;;;;19.99;33.75;99925.19;5107900;28;20093;-69
2022/04/28 10:04:52;;;;;;;7.80;5.45;;;;;;;19.69;34.15;99925.91;5107546;28;20238;-69
2022/04/28 10:07:24;;;;;;;8.80;7.15;;;;;;;19.70;32.99;99887.28;5107485;28;20181;-68
2022/04/28 10:09:56;;;;;;;6.15;4.40;;;;;;;19.61;32.12;99931.09;5107336;28;20040;-69
2022/04/28 10:12:29;;;;;;;7.13;5.45;;;;;;;19.64;33.42;99930.81;5107157;28;20058;-68
2022/04/28 10:15:04;;;;;;;6.28;4.70;;;;;;;19.70;33.76;99926.78;5107228;28;20090;-69
2022/04/28 10:17:42;;;;;;;7.18;5.28;;;;;;;18.81;31.43;99799.78;5106695;28;20052;-69
2022/04/28 10:20:19;;;;;;;7.05;5.75;;;;;;;19.53;32.34;99933.56;5107031;28;20086;-69
2022/04/28 10:22:53;;;;;;;9.70;6.05;;;;;;;18.31;34.46;99762.75;5107123;28;20231;-70
2022/04/28 10:34:12;;;;;;;9.07;6.50;;;;;;;18.88;36.10;99912.91;5106854;28;20097;-69
2022/04/28 10:36:53;;;;;;;7.72;5.95;;;;;;;18.32;36.18;99867.25;5105881;28;20209;-69
2022/04/28 10:39:38;;;;;;;11.30;6.32;;;;;;;18.47;35.66;99914.34;5107030;28;20289;-69
2022/04/28 10:42:15;;;;;;;7.68;5.15;;;;;;;18.32;37.19;99920.06;5107081;28;20211;-69
2022/04/28 10:44:54;;;;;;;7.38;5.20;;;;;;;18.00;36.15;99901.97;5107118;28;20280;-69
2022/04/28 10:47:34;;;;;;;6.50;5.30;;;;;;;17.88;36.57;99924.38;5106756;28;20044;-69
2022/04/28 10:50:22;;;;;;;5.75;4.68;;;;;;;17.81;35.40;99923.13;5106857;28;20089;-69
2022/04/28 10:52:56;;;;;;;7.38;5.15;;;;;;;17.74;37.18;99924.56;5106927;28;20040;-69
2022/04/28 10:55:33;;;;;;;8.52;6.07;;;;;;;17.65;36.86;99933.28;5106547;28;20081;-69
2022/04/28 10:58:18;;;;;;;6.07;4.93;;;;;;;17.60;35.95;99925.56;5106200;28;20040;-69
2022/04/28 11:00:56;;;;;;;7.63;5.38;;;;;;;17.45;36.42;99930.25;5106469;28;20086;-68
2022/04/28 11:03:46;;;;;;;7.57;5.05;;;;;;;16.55;36.24;99800.28;5105557;28;20249;-69
2022/04/28 11:06:21;;;;;;;6.10;5.03;;;;;;;17.43;37.21;99934.00;5105737;28;20040;-68
2022/04/28 11:08:51;;;;;;;8.48;4.93;;;;;;;17.41;37.53;99939.47;5105771;28;20226;-68
2022/04/28 11:11:19;;;;;;;7.78;6.07;;;;;;;17.25;36.57;99939.75;5106232;28;20119;-69
2022/04/28 11:13:56;;;;;;;9.27;5.78;;;;;;;17.23;37.57;99943.53;5106086;28;20183;-68
2022/04/28 11:16:26;;;;;;;7.15;6.18;;;;;;;17.25;37.63;99936.22;5105830;28;20074;-68
2022/04/28 11:18:55;;;;;;;5.65;4.47;;;;;;;17.46;37.50;99934.63;5106461;28;20040;-68
2022/04/28 11:21:26;;;;;;;10.70;5.60;;;;;;;17.71;37.06;99939.06;5106020;28;20062;-68
2022/04/28 11:23:55;;;;;;;8.40;5.03;;;;;;;18.01;36.91;99932.31;5106411;28;20060;-68
2022/04/28 11:26:26;;;;;;;8.40;5.25;;;;;;;18.25;35.92;99959.94;5106251;28;20039;-68
2022/04/28 11:28:55;;;;;;;5.43;4.70;;;;;;;18.43;35.66;99923.63;5106013;28;20075;-68
2022/04/28 11:31:25;;;;;;;5.38;4.45;;;;;;;18.60;35.23;99911.59;5104878;28;20103;-68
2022/04/28 11:33:56;;;;;;;7.18;4.75;;;;;;;18.74;35.17;99924.75;5106192;28;20082;-68
2022/04/28 11:36:29;;;;;;;6.63;3.97;;;;;;;18.83;33.95;99920.47;5104842;28;20051;-68
2022/04/28 11:39:03;;;;;;;4.85;3.75;;;;;;;19.04;34.55;99925.94;5105290;28;20040;-69
2022/04/28 11:41:39;;;;;;;;;;;;;;;19.09;31.44;99913.84;5106603;28;20177;-70
2022/04/28 11:44:16;;;;;;;4.97;3.80;;;;;;;18.18;32.89;99761.06;5106017;28;19919;-69
2022/04/28 11:46:50;;;;;;;5.57;4.05;;;;;;;19.00;33.14;99866.25;5106188;28;20085;-73
2022/04/28 11:49:23;;;;;;;7.68;4.13;;;;;;;19.41;33.37;99905.00;5105124;28;20178;-69
2022/04/28 11:52:00;;;;;;;6.50;4.45;;;;;;;19.67;30.32;99898.31;5105952;28;20048;-68
2022/04/28 11:54:32;;;;;;;4.65;3.70;;;;;;;19.77;30.88;99901.06;5105717;28;20245;-68
2022/04/28 11:57:11;;;;;;;7.18;5.05;;;;;;;19.59;30.32;99900.78;5105830;28;20089;-68
2022/04/28 11:59:43;;;;;;;5.07;3.40;;;;;;;19.24;32.16;99852.63;5105623;28;20044;-69
2022/04/28 12:02:26;;;;;;;4.55;3.97;;;;;;;19.24;29.92;99863.38;5105681;28;20346;-69
2022/04/28 12:05:00;;;;;;;4.70;3.60;;;;;;;19.28;31.71;99878.25;5105380;28;20344;-69
2022/04/28 12:07:35;;;;;;;5.55;3.55;;;;;;;19.47;31.16;99902.66;5105690;28;20040;-69
2022/04/28 12:15:47;;;;;;;7.75;3.70;;;;;;;19.32;32.17;99908.41;5104625;28;20223;-69
2022/04/28 12:21:21;;;;;;;4.97;3.60;;;;;;;19.47;31.27;99908.03;5105127;28;20044;-68
2022/04/28 12:23:56;;;;;;;6.30;3.72;;;;;;;19.39;32.07;99897.06;5105095;28;20051;-70
2022/04/28 12:26:35;;;;;;;4.55;3.28;;;;;;;19.36;31.37;99902.66;5105270;28;20044;-69
2022/04/28 12:29:08;;;;;;;5.00;3.97;;;;;;;19.32;33.25;99903.91;5105238;28;20085;-69
2022/04/28 12:31:42;;;;;;;5.30;4.30;;;;;;;19.23;32.38;99910.03;5105312;28;20061;-69
2022/04/28 12:34:19;;;;;;;7.28;5.22;;;;;;;17.74;32.21;99675.25;5106380;28;20040;-69
2022/04/28 12:36:57;;;;;;;5.93;4.53;;;;;;;18.86;31.78;99862.00;5106784;28;20266;-70
2022/04/28 12:39:31;;;;;;;8.43;5.70;;;;;;;18.91;31.81;99893.88;5107263;28;20040;-69